Time;durP1;ratioP1;P1;durP2;ratioP2;P2;SDS_P1;SDS_P2;PMS_P1;PMS_P2;Temp;Humidity;BMP_temperature;BMP_pressure;BME280_temperature;BME280_humidity;BME280_pressure;Samples;Min_cycle;Max_cycle;Signal;HPM_P1;HPM_P2
2021/09/20 00:00:05;;;;;;;1.10;1.10;;;12.00;99.90;;;;;;6169368;23;20386;-81
2021/09/20 00:02:49;;;;;;;1.30;1.20;;;12.00;99.90;;;;;;6192165;23;20367;-82
2021/09/20 00:05:33;;;;;;;1.20;1.20;;;11.90;99.90;;;;;;6190813;23;20367;-82
2021/09/20 00:08:18;;;;;;;1.20;1.10;;;11.90;99.90;;;;;;6202426;23;20390;-85
2021/09/20 00:11:02;;;;;;;1.25;1.08;;;11.90;99.90;;;;;;6197623;23;20369;-82
2021/09/20 00:13:46;;;;;;;0.93;0.93;;;11.90;99.90;;;;;;6194987;23;20418;-81
2021/09/20 00:16:31;;;;;;;1.77;1.58;;;11.90;99.90;;;;;;6132176;23;20390;-83
2021/09/20 00:19:15;;;;;;;1.20;1.20;;;11.90;99.90;;;;;;6131481;23;20382;-82
2021/09/20 00:22:00;;;;;;;1.40;1.30;;;11.90;99.90;;;;;;6174045;23;20363;-83
2021/09/20 00:24:44;;;;;;;1.37;1.27;;;11.90;99.90;;;;;;6132076;23;20432;-81
2021/09/20 00:27:28;;;;;;;1.40;1.30;;;11.90;99.90;;;;;;6195379;23;20367;-81
2021/09/20 00:30:13;;;;;;;1.50;1.40;;;11.90;99.90;;;;;;6153651;23;20677;-84
2021/09/20 00:32:58;;;;;;;1.10;1.10;;;11.90;99.90;;;;;;6152866;23;20378;-85
2021/09/20 00:35:42;;;;;;;1.70;1.20;;;11.90;99.90;;;;;;6152418;23;20426;-81
2021/09/20 00:38:26;;;;;;;1.25;1.20;;;11.90;99.90;;;;;;6131097;23;20877;-86
2021/09/20 00:41:11;;;;;;;1.40;1.30;;;11.90;99.90;;;;;;6151598;23;20379;-84
2021/09/20 00:43:55;;;;;;;0.95;0.95;;;11.90;99.90;;;;;;6131753;23;20366;-80
2021/09/20 00:46:40;;;;;;;1.00;1.00;;;11.80;99.90;;;;;;6130262;23;20891;-81
2021/09/20 00:49:24;;;;;;;1.10;1.10;;;11.80;99.90;;;;;;6151844;23;20725;-83
2021/09/20 00:52:09;;;;;;;1.38;1.27;;;11.90;99.90;;;;;;6150139;23;20898;-81
2021/09/20 00:54:53;;;;;;;1.15;1.13;;;11.80;99.90;;;;;;6152781;23;20697;-81
2021/09/20 00:57:39;;;;;;;1.15;1.15;;;11.80;99.90;;;;;;6132042;23;20402;-83
2021/09/20 01:00:24;;;;;;;1.60;1.50;;;11.80;99.90;;;;;;6152234;23;20727;-82
2021/09/20 01:03:08;;;;;;;1.30;1.20;;;11.80;99.90;;;;;;6150516;23;20374;-81
2021/09/20 01:05:53;;;;;;;1.40;1.30;;;11.80;99.90;;;;;;6130203;23;20386;-82
2021/09/20 01:08:37;;;;;;;1.40;1.30;;;11.80;99.90;;;;;;6171025;23;20406;-86
2021/09/20 01:11:22;;;;;;;1.17;1.17;;;11.80;99.90;;;;;;6150002;23;20370;-81
2021/09/20 01:14:06;;;;;;;1.35;1.25;;;11.70;99.90;;;;;;6127967;23;20375;-79
2021/09/20 01:16:50;;;;;;;1.20;1.20;;;11.70;99.90;;;;;;6170739;23;20417;-83
2021/09/20 01:19:34;;;;;;;1.50;1.40;;;11.60;99.90;;;;;;6128027;23;20450;-83
2021/09/20 01:22:20;;;;;;;1.40;1.30;;;11.60;99.90;;;;;;6171693;23;20374;-88
2021/09/20 01:25:06;;;;;;;1.40;1.30;;;11.60;99.90;;;;;;6161545;23;20367;-84
2021/09/20 01:27:50;;;;;;;1.50;1.40;;;11.60;99.90;;;;;;6137212;23;20414;-81
2021/09/20 01:30:35;;;;;;;1.42;1.33;;;11.60;99.90;;;;;;6154516;23;20374;-82
2021/09/20 01:33:19;;;;;;;1.30;1.20;;;11.60;99.90;;;;;;6151493;23;20371;-83
2021/09/20 01:36:03;;;;;;;1.23;1.23;;;11.60;99.90;;;;;;6150028;23;21192;-82
2021/09/20 01:38:48;;;;;;;2.53;1.30;;;11.60;99.90;;;;;;6129695;23;20459;-82
2021/09/20 01:41:33;;;;;;;2.07;1.33;;;11.60;99.90;;;;;;6170883;23;20414;-80
2021/09/20 01:44:18;;;;;;;1.23;1.20;;;11.60;99.90;;;;;;6171154;23;20705;-85
2021/09/20 01:47:03;;;;;;;1.58;1.48;;;11.70;99.90;;;;;;6149991;23;20439;-81
2021/09/20 01:49:47;;;;;;;1.30;1.30;;;11.60;99.90;;;;;;6149834;23;20371;-82
2021/09/20 01:52:31;;;;;;;1.50;1.40;;;11.60;99.90;;;;;;6130029;23;20363;-80
2021/09/20 01:55:16;;;;;;;1.55;1.45;;;11.60;99.90;;;;;;6171119;23;20443;-81
2021/09/20 01:58:00;;;;;;;1.83;1.73;;;11.60;99.90;;;;;;6171421;23;20447;-86
2021/09/20 02:00:46;;;;;;;1.60;1.50;;;11.60;99.90;;;;;;6128964;23;20370;-82
2021/09/20 02:03:30;;;;;;;2.42;1.70;;;11.50;99.90;;;;;;6129628;23;20375;-82
2021/09/20 02:06:14;;;;;;;1.50;1.40;;;11.50;99.90;;;;;;6129362;23;20367;-82
2021/09/20 02:08:59;;;;;;;1.60;1.50;;;11.50;99.90;;;;;;6148626;23;20363;-81
2021/09/20 02:11:43;;;;;;;1.40;1.33;;;11.50;99.90;;;;;;6128768;23;20355;-81
2021/09/20 02:14:28;;;;;;;1.60;1.30;;;11.50;99.90;;;;;;6130190;23;20433;-80
2021/09/20 02:17:12;;;;;;;1.57;1.47;;;11.50;99.90;;;;;;6169055;23;20394;-80
2021/09/20 02:19:56;;;;;;;1.73;1.35;;;11.50;99.90;;;;;;6190109;23;20916;-82
2021/09/20 02:22:40;;;;;;;1.42;1.25;;;11.50;99.90;;;;;;6189015;23;20487;-80
2021/09/20 02:25:25;;;;;;;1.25;1.17;;;11.50;99.90;;;;;;6188508;23;20416;-80
2021/09/20 02:28:10;;;;;;;1.52;1.42;;;11.50;99.90;;;;;;6191084;23;20682;-81
2021/09/20 02:30:54;;;;;;;1.60;1.50;;;11.60;99.90;;;;;;6189806;23;20376;-81
2021/09/20 02:33:39;;;;;;;1.50;1.40;;;11.60;99.90;;;;;;6191293;23;20370;-81
2021/09/20 02:36:23;;;;;;;2.40;1.50;;;11.50;99.90;;;;;;6190444;23;20729;-81
2021/09/20 02:39:07;;;;;;;1.42;1.33;;;11.50;99.90;;;;;;6190935;23;20371;-88
2021/09/20 02:41:51;;;;;;;1.25;1.20;;;11.50;99.90;;;;;;6199520;23;20371;-83
2021/09/20 02:44:35;;;;;;;1.50;1.40;;;11.50;99.90;;;;;;6192584;23;20389;-82
2021/09/20 02:47:20;;;;;;;2.17;1.80;;;11.50;99.90;;;;;;6191383;23;20367;-80
2021/09/20 02:50:05;;;;;;;1.43;1.33;;;11.50;99.90;;;;;;6169852;23;20425;-80
2021/09/20 02:52:49;;;;;;;1.60;1.50;;;11.50;99.90;;;;;;6190209;23;20443;-85
2021/09/20 02:55:33;;;;;;;2.40;1.30;;;11.50;99.90;;;;;;6191436;23;20371;-81
2021/09/20 02:58:18;;;;;;;1.50;1.40;;;11.50;99.90;;;;;;6190243;23;20382;-83
2021/09/20 03:01:02;;;;;;;1.73;1.40;;;11.50;99.90;;;;;;6168739;23;20366;-80
2021/09/20 03:03:47;;;;;;;1.10;1.10;;;11.50;99.90;;;;;;6190396;23;20402;-81
2021/09/20 03:06:35;;;;;;;1.60;1.40;;;11.40;99.90;;;;;;6202526;23;20383;-86
2021/09/20 03:09:19;;;;;;;1.50;1.40;;;11.50;99.90;;;;;;6201788;23;20374;-84
2021/09/20 03:12:04;;;;;;;1.50;1.40;;;11.50;99.90;;;;;;6152407;23;20418;-82
2021/09/20 03:14:47;;;;;;;1.20;1.20;;;11.50;99.90;;;;;;6194192;23;21235;-81
2021/09/20 03:17:32;;;;;;;4.90;1.40;;;11.50;99.90;;;;;;6173541;23;20454;-80
2021/09/20 03:20:16;;;;;;;1.48;1.38;;;11.50;99.90;;;;;;6172952;23;20409;-80
2021/09/20 03:23:00;;;;;;;1.27;1.23;;;11.60;99.90;;;;;;6194542;23;20430;-81
2021/09/20 03:25:45;;;;;;;1.48;1.38;;;11.50;99.90;;;;;;6215025;23;20423;-80
2021/09/20 03:28:29;;;;;;;1.43;1.33;;;11.50;99.90;;;;;;6194562;23;20430;-81
2021/09/20 03:31:14;;;;;;;1.60;1.50;;;11.50;99.90;;;;;;6173457;23;20446;-81
2021/09/20 03:33:58;;;;;;;1.30;1.20;;;11.50;99.90;;;;;;6170305;23;20367;-83
2021/09/20 03:36:42;;;;;;;1.45;1.35;;;11.50;99.90;;;;;;6154538;23;20410;-85
2021/09/20 03:39:26;;;;;;;1.40;1.30;;;11.50;99.90;;;;;;6202017;23;20383;-86
2021/09/20 03:42:11;;;;;;;1.48;1.38;;;11.40;99.90;;;;;;6181716;23;20394;-86
2021/09/20 03:44:55;;;;;;;1.60;1.50;;;11.50;99.90;;;;;;6206939;23;20398;-84
2021/09/20 03:47:40;;;;;;;1.50;1.40;;;11.50;99.90;;;;;;6188283;23;20370;-87
2021/09/20 03:50:24;;;;;;;1.45;1.35;;;11.50;99.90;;;;;;6186629;23;20355;-86
2021/09/20 03:53:09;;;;;;;1.90;1.50;;;11.40;99.90;;;;;;6191881;23;20374;-83
2021/09/20 03:55:53;;;;;;;1.52;1.42;;;11.50;99.90;;;;;;6230998;23;20508;-85
2021/09/20 03:58:37;;;;;;;1.30;1.20;;;11.40;99.90;;;;;;6193435;23;20371;-84
2021/09/20 04:01:21;;;;;;;2.70;1.25;;;11.40;99.90;;;;;;6189535;23;20374;-85
2021/09/20 04:04:06;;;;;;;1.53;1.43;;;11.40;99.90;;;;;;6190605;23;20358;-83
2021/09/20 04:06:50;;;;;;;1.60;1.50;;;11.40;99.90;;;;;;6188254;23;20413;-87
2021/09/20 04:09:36;;;;;;;1.13;1.13;;;11.40;99.90;;;;;;6171339;23;20366;-83
2021/09/20 04:12:20;;;;;;;1.30;1.30;;;11.40;99.90;;;;;;6190935;23;20378;-88
2021/09/20 04:15:05;;;;;;;1.80;1.70;;;11.40;99.90;;;;;;6212574;23;20394;-81
2021/09/20 04:17:50;;;;;;;1.65;1.55;;;11.40;99.90;;;;;;6190162;23;20415;-80
2021/09/20 04:20:34;;;;;;;1.73;1.52;;;11.40;99.90;;;;;;6188606;23;20370;-81
2021/09/20 04:23:19;;;;;;;2.80;1.58;;;11.30;99.90;;;;;;6209629;23;20375;-80
2021/09/20 04:26:03;;;;;;;1.98;1.60;;;11.40;99.90;;;;;;6208991;23;21115;-80
2021/09/20 04:28:47;;;;;;;1.48;1.38;;;11.30;99.90;;;;;;6193656;23;20367;-82
2021/09/20 04:31:32;;;;;;;2.47;1.60;;;11.40;99.90;;;;;;6189828;23;20391;-83
2021/09/20 04:34:16;;;;;;;1.20;1.20;;;11.40;99.90;;;;;;6189937;23;20891;-83
2021/09/20 04:37:00;;;;;;;1.80;1.40;;;11.40;99.90;;;;;;6169997;23;20399;-84
2021/09/20 04:39:45;;;;;;;1.60;1.50;;;11.40;99.90;;;;;;6206122;23;20378;-83
2021/09/20 04:42:30;;;;;;;1.35;1.25;;;11.40;99.90;;;;;;6200348;23;20379;-84
2021/09/20 04:45:14;;;;;;;1.50;1.40;;;11.40;99.90;;;;;;6193839;23;20374;-83
2021/09/20 04:47:59;;;;;;;1.38;1.27;;;11.40;99.90;;;;;;6171757;23;20362;-82
2021/09/20 04:50:44;;;;;;;1.42;1.33;;;11.30;99.90;;;;;;6211966;23;20394;-82
2021/09/20 04:53:28;;;;;;;1.52;1.30;;;11.50;99.90;;;;;;6214698;23;20403;-81
2021/09/20 04:56:14;;;;;;;1.52;1.42;;;11.30;99.90;;;;;;6166300;23;20414;-81
2021/09/20 04:58:58;;;;;;;1.17;1.17;;;11.30;99.90;;;;;;6170082;23;20371;-82
2021/09/20 05:01:43;;;;;;;1.17;1.17;;;11.30;99.90;;;;;;6189137;23;20374;-81
2021/09/20 05:04:27;;;;;;;1.40;1.30;;;11.30;99.90;;;;;;6187051;23;20374;-81
2021/09/20 05:07:11;;;;;;;1.35;1.25;;;11.20;99.90;;;;;;6167638;23;20883;-80
2021/09/20 05:09:55;;;;;;;1.20;1.20;;;11.20;99.90;;;;;;6189268;23;20375;-81
2021/09/20 05:12:39;;;;;;;1.73;1.45;;;11.30;99.90;;;;;;6168505;23;20371;-82
2021/09/20 05:15:24;;;;;;;1.50;1.40;;;11.30;99.90;;;;;;6175595;23;20401;-83
2021/09/20 05:18:08;;;;;;;1.40;1.30;;;11.30;99.90;;;;;;6192386;23;20768;-81
2021/09/20 05:20:52;;;;;;;1.20;1.10;;;11.30;99.90;;;;;;6187024;23;20394;-81
2021/09/20 05:23:36;;;;;;;1.52;1.40;;;11.30;99.90;;;;;;6187019;23;20990;-80
2021/09/20 05:26:21;;;;;;;1.10;1.10;;;11.30;99.90;;;;;;6187585;23;20371;-81
2021/09/20 05:29:05;;;;;;;1.30;1.20;;;11.40;99.90;;;;;;6166731;23;20386;-81
2021/09/20 05:31:50;;;;;;;1.50;1.40;;;11.30;99.90;;;;;;6187578;23;20399;-85
2021/09/20 05:34:34;;;;;;;1.15;1.15;;;11.30;99.90;;;;;;6186862;23;20371;-80
2021/09/20 05:37:18;;;;;;;1.63;1.40;;;11.30;99.90;;;;;;6165836;23;20460;-81
2021/09/20 05:40:03;;;;;;;2.60;1.50;;;11.30;99.90;;;;;;6186369;23;20367;-84
2021/09/20 05:42:47;;;;;;;1.33;1.23;;;11.30;99.90;;;;;;6186420;23;20480;-81
2021/09/20 05:45:31;;;;;;;1.35;1.27;;;11.30;99.90;;;;;;6186911;23;20366;-81
2021/09/20 05:48:16;;;;;;;1.40;1.30;;;11.30;99.90;;;;;;6165410;23;20425;-80
2021/09/20 05:51:00;;;;;;;1.80;1.50;;;11.30;99.90;;;;;;6166213;23;20697;-81
2021/09/20 05:53:44;;;;;;;1.80;1.70;;;11.20;99.90;;;;;;6186900;23;21171;-81
2021/09/20 05:56:28;;;;;;;1.90;1.80;;;11.20;99.90;;;;;;6165756;23;20366;-81
2021/09/20 05:59:13;;;;;;;1.45;1.35;;;11.10;99.90;;;;;;6186510;23;20410;-80
2021/09/20 06:01:57;;;;;;;1.70;1.40;;;11.10;99.90;;;;;;6166152;23;20382;-82
2021/09/20 06:04:42;;;;;;;1.20;1.20;;;11.10;99.90;;;;;;6188039;23;20720;-81
2021/09/20 06:07:26;;;;;;;1.40;1.30;;;11.10;99.90;;;;;;6188118;23;20410;-80
2021/09/20 06:10:11;;;;;;;1.40;1.30;;;11.10;99.90;;;;;;6186657;23;20431;-82
2021/09/20 06:12:56;;;;;;;1.40;1.30;;;11.20;99.90;;;;;;6186856;23;20732;-81
2021/09/20 06:15:40;;;;;;;1.58;1.48;;;11.20;99.90;;;;;;6185930;23;20457;-80
2021/09/20 06:18:24;;;;;;;1.37;1.27;;;11.30;99.90;;;;;;6208088;23;20425;-79
2021/09/20 06:21:09;;;;;;;1.83;1.73;;;11.20;99.90;;;;;;6187003;23;20374;-80
2021/09/20 06:23:53;;;;;;;1.60;1.50;;;11.10;99.90;;;;;;6165920;23;20901;-81
2021/09/20 06:26:37;;;;;;;3.05;1.58;;;11.10;99.90;;;;;;6166814;23;20363;-82
2021/09/20 06:29:21;;;;;;;1.40;1.30;;;11.00;99.90;;;;;;6186564;23;20374;-81
2021/09/20 06:32:06;;;;;;;1.20;1.20;;;11.00;99.90;;;;;;6189907;23;20426;-82
2021/09/20 06:34:50;;;;;;;1.35;1.25;;;11.10;99.90;;;;;;6172216;23;20450;-81
2021/09/20 06:37:34;;;;;;;1.40;1.30;;;11.20;99.90;;;;;;6190355;23;20378;-87
2021/09/20 06:40:18;;;;;;;1.63;1.52;;;11.30;99.90;;;;;;6188450;23;20491;-87
2021/09/20 06:43:03;;;;;;;1.60;1.50;;;11.30;99.90;;;;;;6209036;23;20418;-84
2021/09/20 06:45:47;;;;;;;1.52;1.40;;;11.30;99.90;;;;;;6184379;23;20371;-83
2021/09/20 06:48:31;;;;;;;1.57;1.47;;;11.40;99.90;;;;;;6186658;23;20367;-82
2021/09/20 06:51:16;;;;;;;1.70;1.60;;;11.40;99.90;;;;;;6187019;23;20433;-81
2021/09/20 06:54:00;;;;;;;1.45;1.35;;;11.40;99.90;;;;;;6166308;23;20417;-81
2021/09/20 06:56:44;;;;;;;1.70;1.60;;;11.50;99.90;;;;;;6166063;23;20651;-82
2021/09/20 06:59:29;;;;;;;1.60;1.50;;;11.60;99.90;;;;;;6165379;23;20466;-85
2021/09/20 07:02:13;;;;;;;1.60;1.50;;;11.70;99.90;;;;;;6186621;23;20418;-80
2021/09/20 07:04:57;;;;;;;1.50;1.40;;;11.70;99.90;;;;;;6166419;23;20382;-81
2021/09/20 07:07:41;;;;;;;1.48;1.38;;;11.80;99.90;;;;;;6165621;23;20922;-81
2021/09/20 07:10:27;;;;;;;1.17;1.17;;;11.80;99.90;;;;;;6187711;23;20469;-81
2021/09/20 07:13:11;;;;;;;1.73;1.63;;;11.80;99.90;;;;;;6166019;23;20914;-81
2021/09/20 07:15:55;;;;;;;1.52;1.42;;;11.80;99.90;;;;;;6165957;23;20375;-83
2021/09/20 07:18:40;;;;;;;1.40;1.33;;;11.80;99.90;;;;;;6187874;23;20752;-81
2021/09/20 07:21:24;;;;;;;1.27;1.25;;;11.90;99.90;;;;;;6187295;23;20378;-81
2021/09/20 07:24:11;;;;;;;1.50;1.40;;;11.90;99.90;;;;;;6187176;23;20379;-81
2021/09/20 07:26:55;;;;;;;1.10;1.10;;;11.90;99.90;;;;;;6209823;23;20431;-82
2021/09/20 07:29:39;;;;;;;1.80;1.70;;;12.00;99.90;;;;;;6187916;23;20433;-81
2021/09/20 07:32:23;;;;;;;2.00;1.30;;;12.10;99.90;;;;;;6187562;23;20378;-83
2021/09/20 07:35:09;;;;;;;1.60;1.50;;;12.10;99.90;;;;;;6167468;23;20367;-86
2021/09/20 07:37:54;;;;;;;3.42;1.65;;;12.20;99.90;;;;;;6188618;23;20895;-83
2021/09/20 07:40:38;;;;;;;1.45;1.20;;;12.20;99.90;;;;;;6162220;23;20365;-81
2021/09/20 07:43:23;;;;;;;1.40;1.30;;;12.30;99.90;;;;;;6168751;23;20407;-82
2021/09/20 07:46:07;;;;;;;1.40;1.30;;;12.40;99.90;;;;;;6189279;23;20351;-81
2021/09/20 07:48:52;;;;;;;1.27;1.27;;;12.40;99.90;;;;;;6177237;23;20363;-88
2021/09/20 07:51:36;;;;;;;1.25;1.20;;;12.60;99.90;;;;;;6204830;23;20425;-86
2021/09/20 07:54:20;;;;;;;1.27;1.17;;;12.70;99.90;;;;;;6201089;23;20382;-87
2021/09/20 07:57:05;;;;;;;1.40;1.30;;;12.70;99.90;;;;;;6177463;23;20423;-82
2021/09/20 07:59:49;;;;;;;1.60;1.50;;;12.80;99.90;;;;;;6173675;23;20414;-81
2021/09/20 08:02:34;;;;;;;1.40;1.30;;;12.90;99.90;;;;;;6171747;23;20395;-81
2021/09/20 08:05:18;;;;;;;1.33;1.23;;;12.90;99.90;;;;;;6173252;23;20378;-82
2021/09/20 08:08:03;;;;;;;1.50;1.40;;;13.00;99.90;;;;;;6196976;23;20433;-81
2021/09/20 08:10:48;;;;;;;1.17;1.10;;;13.10;99.90;;;;;;6172337;23;20376;-81
2021/09/20 08:13:33;;;;;;;1.50;1.40;;;13.10;99.90;;;;;;6173337;23;20438;-79
2021/09/20 08:16:17;;;;;;;1.40;1.33;;;13.20;99.90;;;;;;6174194;23;20444;-81
2021/09/20 08:19:02;;;;;;;2.40;1.35;;;13.40;99.90;;;;;;6154950;23;20442;-82
2021/09/20 08:21:46;;;;;;;1.23;1.23;;;13.50;99.90;;;;;;6134676;23;20362;-83
2021/09/20 08:24:31;;;;;;;1.40;1.30;;;13.60;99.90;;;;;;6136815;23;20402;-83
2021/09/20 08:27:15;;;;;;;1.70;1.58;;;13.80;99.90;;;;;;6136574;23;20450;-87
2021/09/20 08:30:00;;;;;;;1.30;1.20;;;13.90;99.90;;;;;;6130782;23;20370;-83
2021/09/20 08:32:45;;;;;;;1.40;1.30;;;14.10;99.90;;;;;;6129322;23;20375;-82
2021/09/20 08:35:29;;;;;;;1.60;1.50;;;14.20;99.90;;;;;;6133934;23;20417;-82
2021/09/20 08:38:13;;;;;;;1.30;1.20;;;14.20;99.90;;;;;;6155174;23;20886;-79
2021/09/20 08:40:58;;;;;;;1.60;1.40;;;14.20;99.90;;;;;;6134971;23;20439;-84
2021/09/20 08:43:42;;;;;;;1.30;1.20;;;14.30;99.90;;;;;;6157409;23;20390;-82
2021/09/20 08:46:26;;;;;;;1.40;1.30;;;14.50;99.90;;;;;;6134614;23;20867;-82
2021/09/20 08:49:10;;;;;;;1.40;1.30;;;14.60;99.90;;;;;;6136993;23;20438;-84
2021/09/20 08:51:57;;;;;;;1.03;1.03;;;14.70;99.90;;;;;;6137266;23;20375;-82
2021/09/20 08:54:42;;;;;;;1.55;1.33;;;14.80;99.90;;;;;;6139027;23;20417;-83
2021/09/20 08:57:27;;;;;;;1.10;1.10;;;15.00;99.90;;;;;;6136501;23;20402;-83
2021/09/20 09:00:13;;;;;;;1.40;1.30;;;15.10;99.90;;;;;;6157741;23;20371;-85
2021/09/20 09:02:59;;;;;;;2.13;1.37;;;15.20;99.90;;;;;;6137165;23;20370;-83
2021/09/20 09:05:46;;;;;;;1.80;1.33;;;15.20;99.90;;;;;;6163320;23;20415;-88
2021/09/20 09:08:40;;;;;;;1.60;1.50;;;15.40;99.90;;;;;;6186417;23;20374;-89
2021/09/20 09:11:24;;;;;;;1.80;1.70;;;15.50;99.90;;;;;;6165941;23;20374;-86
2021/09/20 09:14:09;;;;;;;1.08;1.00;;;15.50;99.90;;;;;;6142013;23;20431;-85
2021/09/20 09:16:55;;;;;;;1.10;1.10;;;15.60;99.90;;;;;;6160236;23;20417;-86
2021/09/20 09:19:54;;;;;;;1.27;1.23;;;15.80;99.90;;;;;;6202716;23;20460;-88
2021/09/20 09:22:49;;;;;;;1.10;1.10;;;16.00;99.90;;;;;;6139200;23;20378;-84
2021/09/20 09:25:43;;;;;;;1.90;1.20;;;16.20;99.90;;;;;;6181419;23;20446;-84
2021/09/20 09:28:28;;;;;;;1.75;1.65;;;16.20;99.90;;;;;;6140647;23;20821;-85
2021/09/20 09:31:13;;;;;;;1.77;1.20;;;16.20;99.90;;;;;;6138589;23;20371;-83
2021/09/20 09:33:58;;;;;;;1.45;1.35;;;16.40;99.90;;;;;;6139301;23;20378;-83
2021/09/20 09:36:42;;;;;;;0.90;0.90;;;16.50;99.90;;;;;;6138613;23;20386;-84
2021/09/20 09:39:28;;;;;;;2.33;1.35;;;16.50;99.90;;;;;;6137895;23;20427;-90
2021/09/20 09:42:23;;;;;;;1.00;1.00;;;16.50;99.90;;;;;;6138196;23;20359;-86
2021/09/20 09:45:29;;;;;;;1.30;1.20;;;16.70;99.90;;;;;;6136435;23;20362;-84
2021/09/20 09:48:15;;;;;;;1.00;1.00;;;17.00;99.90;;;;;;6157149;23;20420;-86
2021/09/20 09:51:01;;;;;;;1.10;1.10;;;17.10;99.90;;;;;;6135707;23;20417;-85
2021/09/20 09:53:47;;;;;;;1.35;1.25;;;17.10;99.90;;;;;;6177477;23;20413;-86
2021/09/20 09:56:31;;;;;;;0.97;0.97;;;17.20;99.90;;;;;;6156792;23;20374;-83
2021/09/20 09:59:16;;;;;;;1.05;1.00;;;17.00;99.90;;;;;;6137535;23;20502;-86
2021/09/20 10:02:14;;;;;;;1.00;1.00;;;17.00;99.90;;;;;;6137736;23;21011;-88
2021/09/20 10:05:10;;;;;;;1.10;1.05;;;17.10;99.90;;;;;;6140279;23;20475;-88
2021/09/20 10:07:54;;;;;;;0.95;0.93;;;16.70;99.90;;;;;;6176647;23;20370;-86
2021/09/20 10:10:40;;;;;;;1.23;1.13;;;16.90;99.90;;;;;;6177508;23;20807;-86
2021/09/20 10:13:25;;;;;;;1.10;1.10;;;17.10;99.90;;;;;;6179633;23;20371;-85
2021/09/20 10:16:09;;;;;;;1.08;0.98;;;17.10;99.90;;;;;;6158655;23;20430;-83
2021/09/20 10:18:54;;;;;;;0.85;0.85;;;17.30;99.90;;;;;;6177250;23;20379;-87
2021/09/20 10:21:38;;;;;;;0.88;0.88;;;17.70;99.90;;;;;;6184004;23;20412;-93
2021/09/20 10:24:23;;;;;;;0.80;0.80;;;17.50;99.90;;;;;;6185870;23;20382;-86
2021/09/20 10:27:09;;;;;;;0.88;0.88;;;17.60;99.90;;;;;;6184760;23;20398;-90
2021/09/20 10:30:08;;;;;;;2.10;1.13;;;17.50;99.90;;;;;;6203864;23;20375;-84
2021/09/20 10:32:57;;;;;;;1.00;0.90;;;17.70;99.90;;;;;;6183061;23;20463;-91
2021/09/20 10:35:42;;;;;;;0.68;0.68;;;17.90;99.90;;;;;;6181615;23;20398;-87
2021/09/20 10:38:29;;;;;;;1.10;1.00;;;18.20;99.90;;;;;;6201994;23;20434;-86
2021/09/20 10:41:17;;;;;;;1.08;1.08;;;18.20;99.90;;;;;;6201622;23;20370;-87
2021/09/20 10:44:04;;;;;;;1.10;1.00;;;18.10;99.90;;;;;;6179898;23;20394;-92
2021/09/20 10:46:48;;;;;;;1.58;0.90;;;18.30;99.90;;;;;;6200035;23;21037;-84
2021/09/20 10:49:33;;;;;;;0.98;0.98;;;18.40;99.90;;;;;;6199552;23;20748;-85
2021/09/20 10:52:17;;;;;;;0.90;0.90;;;18.00;99.90;;;;;;6180188;23;20386;-90
2021/09/20 10:55:08;;;;;;;1.10;1.00;;;18.10;99.90;;;;;;6200796;23;20452;-90
2021/09/20 10:58:15;;;;;;;1.15;1.05;;;18.00;99.90;;;;;;6179977;23;20410;-87
2021/09/20 11:01:12;;;;;;;0.90;0.90;;;18.20;99.90;;;;;;6177412;23;20447;-87
2021/09/20 11:03:59;;;;;;;1.00;1.00;;;18.60;99.90;;;;;;6200226;23;20446;-87
2021/09/20 11:06:43;;;;;;;0.90;0.90;;;18.90;99.90;;;;;;6179504;23;20390;-85
2021/09/20 11:09:27;;;;;;;1.00;1.00;;;18.80;99.90;;;;;;6179007;23;20358;-84
2021/09/20 11:12:15;;;;;;;1.60;1.20;;;18.90;99.90;;;;;;6221077;23;20491;-84
2021/09/20 11:15:00;;;;;;;1.17;1.17;;;19.10;99.90;;;;;;6179409;23;20378;-87
2021/09/20 11:17:47;;;;;;;1.20;0.90;;;19.30;99.90;;;;;;6179840;23;20434;-86
2021/09/20 11:20:39;;;;;;;0.95;0.95;;;19.50;99.90;;;;;;6202793;23;20363;-84
2021/09/20 11:23:33;;;;;;;1.02;0.80;;;19.70;99.90;;;;;;6182751;23;20378;-85
2021/09/20 11:26:19;;;;;;;0.80;0.80;;;19.70;99.90;;;;;;6166038;23;20523;-83
2021/09/20 11:29:30;;;;;;;0.77;0.77;;;19.70;99.90;;;;;;6178073;23;20359;-87
2021/09/20 11:32:15;;;;;;;0.90;0.90;;;19.00;99.90;;;;;;6204312;23;20394;-86
2021/09/20 11:35:04;;;;;;;1.00;1.00;;;18.70;99.90;;;;;;6177437;23;20374;-88
2021/09/20 11:37:49;;;;;;;1.00;0.90;;;18.30;99.90;;;;;;6153852;23;20446;-87
2021/09/20 11:40:35;;;;;;;0.77;0.77;;;18.40;99.90;;;;;;6184613;23;20365;-89
2021/09/20 11:43:19;;;;;;;0.82;0.82;;;18.70;99.90;;;;;;6179601;23;20363;-88
2021/09/20 11:46:03;;;;;;;0.93;0.90;;;19.30;99.90;;;;;;6156015;23;20367;-85
2021/09/20 11:49:00;;;;;;;1.52;1.08;;;19.40;99.90;;;;;;6180758;23;20423;-85
2021/09/20 11:51:45;;;;;;;0.90;0.90;;;19.30;99.90;;;;;;6180769;23;20383;-84
2021/09/20 11:54:33;;;;;;;0.82;0.82;;;19.40;99.90;;;;;;6176508;23;20382;-88
2021/09/20 11:57:21;;;;;;;1.20;1.00;;;19.50;99.90;;;;;;6180980;23;20394;-86
2021/09/20 12:00:07;;;;;;;1.00;1.00;;;19.50;99.90;;;;;;6199606;23;20479;-84
2021/09/20 12:03:00;;;;;;;0.80;0.80;;;19.50;99.90;;;;;;6182074;23;20350;-87
2021/09/20 12:05:46;;;;;;;1.17;1.10;;;19.80;99.90;;;;;;6197079;23;20362;-84
2021/09/20 12:08:32;;;;;;;35.73;4.70;;;19.70;99.90;;;;;;6201425;23;21057;-90
2021/09/20 12:11:22;;;;;;;0.90;0.90;;;19.90;99.90;;;;;;6215535;23;20350;-92
2021/09/20 12:14:10;;;;;;;1.20;1.10;;;19.60;99.90;;;;;;6214574;23;20427;-92
2021/09/20 13:00:56;;;;;;;0.93;0.93;;;22.50;99.90;;;;;;6253926;22;20378;-90
2021/09/20 13:03:41;;;;;;;1.45;1.10;;;22.70;99.90;;;;;;6144849;23;20367;-87
2021/09/20 13:06:25;;;;;;;0.88;0.88;;;23.30;97.90;;;;;;6165705;23;20425;-92
2021/09/20 13:09:10;;;;;;;0.90;0.90;;;23.50;98.20;;;;;;6167407;23;20355;-88
2021/09/20 13:12:08;;;;;;;0.65;0.65;;;23.30;94.20;;;;;;6145765;23;20459;-91
2021/09/20 13:14:59;;;;;;;1.00;1.00;;;23.00;95.80;;;;;;6146287;23;20386;-89
2021/09/20 13:17:49;;;;;;;3.00;1.10;;;22.60;97.20;;;;;;6185897;23;20346;-87
2021/09/20 13:20:35;;;;;;;1.08;1.00;;;22.40;98.60;;;;;;6165389;23;20443;-88
2021/09/20 13:23:19;;;;;;;0.90;0.90;;;22.60;97.50;;;;;;6162698;23;20475;-86
2021/09/20 13:26:03;;;;;;;1.10;1.00;;;22.30;98.20;;;;;;6164119;23;20390;-86
2021/09/20 13:28:48;;;;;;;1.10;1.10;;;22.00;98.60;;;;;;6140634;23;20386;-87
2021/09/20 13:31:33;;;;;;;0.88;0.88;;;21.70;98.30;;;;;;6139864;23;20378;-84
2021/09/20 13:34:18;;;;;;;1.17;1.17;;;21.40;98.60;;;;;;6159956;23;20394;-90
2021/09/20 13:37:03;;;;;;;0.88;0.88;;;21.30;97.70;;;;;;6140630;23;20384;-87
2021/09/20 13:39:48;;;;;;;0.70;0.70;;;21.40;99.20;;;;;;6124934;23;20390;-86
2021/09/20 13:42:32;;;;;;;0.90;0.90;;;21.60;99.70;;;;;;6159646;23;20378;-86
2021/09/20 13:45:17;;;;;;;0.90;0.87;;;21.60;99.30;;;;;;6159968;23;20414;-91
2021/09/20 13:48:02;;;;;;;1.20;1.10;;;21.50;99.10;;;;;;6159827;23;20401;-90
2021/09/20 13:50:47;;;;;;;0.90;0.90;;;21.30;98.90;;;;;;6162222;23;20375;-89
2021/09/20 13:53:31;;;;;;;0.80;0.80;;;20.80;98.70;;;;;;6163228;23;20367;-93
2021/09/20 13:56:15;;;;;;;1.27;1.17;;;20.80;99.90;;;;;;6188992;23;20359;-89
2021/09/20 13:59:00;;;;;;;1.20;1.10;;;20.70;99.90;;;;;;6144419;23;20383;-87
2021/09/20 14:01:44;;;;;;;1.00;1.00;;;20.00;98.40;;;;;;6142574;23;20403;-86
2021/09/20 14:04:28;;;;;;;0.73;0.73;;;19.60;99.90;;;;;;6143982;23;20407;-93
2021/09/20 14:07:13;;;;;;;1.00;1.00;;;19.70;99.90;;;;;;6146133;23;20403;-90
2021/09/20 14:09:57;;;;;;;0.85;0.85;;;19.70;99.90;;;;;;6146318;23;20406;-93
2021/09/20 14:12:43;;;;;;;1.02;1.02;;;19.70;99.90;;;;;;6168449;23;20906;-92
2021/09/20 14:15:27;;;;;;;0.90;0.90;;;19.80;99.90;;;;;;6147787;23;20362;-92
2021/09/20 14:18:11;;;;;;;0.90;0.90;;;19.70;99.90;;;;;;6167007;23;20475;-89
2021/09/20 14:20:55;;;;;;;1.10;1.00;;;19.80;99.90;;;;;;6165268;23;20503;-90
2021/09/20 14:23:40;;;;;;;1.13;1.13;;;19.60;99.90;;;;;;6144564;23;20447;-89
2021/09/20 14:26:24;;;;;;;1.30;1.20;;;19.50;99.90;;;;;;6165616;23;20348;-87
2021/09/20 14:29:08;;;;;;;1.20;1.20;;;19.30;99.90;;;;;;6144618;23;20446;-87
2021/09/20 14:31:53;;;;;;;1.60;1.20;;;19.00;99.90;;;;;;6142497;23;20439;-93
2021/09/20 14:34:38;;;;;;;1.02;1.00;;;18.90;99.90;;;;;;6164567;23;20609;-88
2021/09/20 14:37:22;;;;;;;0.90;0.90;;;19.00;99.90;;;;;;6143480;23;20917;-89
2021/09/20 14:40:10;;;;;;;1.42;1.33;;;19.00;99.90;;;;;;6142587;23;20425;-89
2021/09/20 14:42:54;;;;;;;1.20;1.20;;;18.90;99.90;;;;;;6141114;23;20410;-90
2021/09/20 14:45:39;;;;;;;1.23;1.17;;;18.70;99.90;;;;;;6161665;23;20387;-91
2021/09/20 14:48:23;;;;;;;1.50;1.40;;;18.70;99.90;;;;;;6141546;23;20379;-93
2021/09/20 14:51:08;;;;;;;1.95;1.85;;;18.60;99.90;;;;;;6140897;23;20359;-89
2021/09/20 14:53:52;;;;;;;2.45;2.25;;;18.50;99.90;;;;;;6141353;23;20791;-88
2021/09/20 14:56:37;;;;;;;1.38;1.27;;;18.60;99.90;;;;;;6182357;23;20379;-86
2021/09/20 14:59:21;;;;;;;1.50;1.40;;;18.70;99.90;;;;;;6159596;23;20447;-83
2021/09/20 15:02:05;;;;;;;1.20;1.10;;;18.60;99.90;;;;;;6159603;23;20455;-83
2021/09/20 15:04:49;;;;;;;1.00;1.00;;;18.50;99.90;;;;;;6155879;23;20394;-81